Time;durP1;ratioP1;P1;durP2;ratioP2;P2;SDS_P1;SDS_P2;PMS_P1;PMS_P2;Temp;Humidity;BMP_temperature;BMP_pressure;BME280_temperature;BME280_humidity;BME280_pressure;Samples;Min_cycle;Max_cycle;Signal;HPM_P1;HPM_P2
2023/04/12 00:01:16;;;;;;;;;;;;;;;;;;5045502;28;43626;-79
2023/04/12 00:03:42;;;;;;;;;;;;;;;;;;5045037;28;42951;-79
2023/04/12 00:06:09;;;;;;;;;;;;;;;;;;5046490;28;42978;-80
2023/04/12 00:08:35;;;;;;;;;;;;;;;;;;5029128;28;42997;-80
2023/04/12 00:11:01;;;;;;;;;;;;;;;;;;5032541;28;43022;-79
2023/04/12 00:13:27;;;;;;;;;;;;;;;;;;5027170;28;42832;-80
2023/04/12 00:15:52;;;;;;;;;;;;;;;;;;5033649;28;43686;-79
2023/04/12 00:18:18;;;;;;;;;;;;;;;;;;5046922;28;42868;-79
2023/04/12 00:20:44;;;;;;;;;;;;;;;;;;5039408;28;43532;-79
2023/04/12 00:23:11;;;;;;;;;;;;;;;;;;5046860;28;43033;-80
2023/04/12 00:25:38;;;;;;;;;;;;;;;;;;5019575;28;44480;-79
2023/04/12 00:28:04;;;;;;;;;;;;;;;;;;5034682;28;43893;-79
2023/04/12 00:30:29;;;;;;;;;;;;;;;;;;5043729;28;42951;-79
2023/04/12 00:32:55;;;;;;;;;;;;;;;;;;5035130;28;43073;-79
2023/04/12 00:35:21;;;;;;;;;;;;;;;;;;5046225;28;42976;-79
2023/04/12 00:37:47;;;;;;;;;;;;;;;;;;5046539;28;42976;-79
2023/04/12 00:40:13;;;;;;;;;;;;;;;;;;5046264;28;43537;-79
2023/04/12 00:42:39;;;;;;;;;;;;;;;;;;5046406;28;42901;-79
2023/04/12 00:45:05;;;;;;;;;;;;;;;;;;5046116;28;43724;-79
2023/04/12 00:47:31;;;;;;;;;;;;;;;;;;5045553;28;43431;-79
2023/04/12 00:49:57;;;;;;;;;;;;;;;;;;5045357;28;43017;-79
2023/04/12 00:52:23;;;;;;;;;;;;;;;;;;5044885;28;42940;-79
2023/04/12 00:54:50;;;;;;;;;;;;;;;;;;5045573;28;42913;-79
2023/04/12 00:57:16;;;;;;;;;;;;;;;;;;5039625;28;42950;-79
2023/04/12 00:59:42;;;;;;;;;;;;;;;;;;5025669;28;43093;-80
2023/04/12 01:02:08;;;;;;;;;;;;;;;;;;5045570;28;42877;-79
2023/04/12 01:04:36;;;;;;;;;;;;;;;;;;5045340;28;43594;-79
2023/04/12 01:07:03;;;;;;;;;;;;;;;;;;5040915;28;42929;-79
2023/04/12 01:09:29;;;;;;;;;;;;;;;;;;5045665;28;42909;-80
2023/04/12 01:11:55;;;;;;;;;;;;;;;;;;5027851;28;43307;-79
2023/04/12 01:14:21;;;;;;;;;;;;;;;;;;5044230;28;43761;-79
2023/04/12 01:16:49;;;;;;;;;;;;;;;;;;5042000;28;43048;-79
2023/04/12 01:19:16;;;;;;;;;;;;;;;;;;5043254;28;44545;-79
2023/04/12 01:21:42;;;;;;;;;;;;;;;;;;5036808;28;42897;-79
2023/04/12 01:24:12;;;;;;;;;;;;;;;;;;5037365;28;43903;-78
2023/04/12 01:26:38;;;;;;;;;;;;;;;;;;5034939;28;42921;-77
2023/04/12 01:29:04;;;;;;;;;;;;;;;;;;5026496;28;43821;-77
2023/04/12 01:31:30;;;;;;;;;;;;;;;;;;5025520;28;42913;-77
2023/04/12 01:33:55;;;;;;;;;;;;;;;;;;5025516;28;43631;-78
2023/04/12 01:36:21;;;;;;;;;;;;;;;;;;5025916;28;42980;-79
2023/04/12 01:38:47;;;;;;;;;;;;;;;;;;5025021;28;43536;-78
2023/04/12 01:41:13;;;;;;;;;;;;;;;;;;5035799;28;42945;-78
2023/04/12 01:43:39;;;;;;;;;;;;;;;;;;5044857;28;43271;-81
2023/04/12 01:46:05;;;;;;;;;;;;;;;;;;5021027;28;42769;-79
2023/04/12 01:48:31;;;;;;;;;;;;;;;;;;5044421;28;43022;-81
2023/04/12 01:50:57;;;;;;;;;;;;;;;;;;5042619;28;42877;-79
2023/04/12 01:53:23;;;;;;;;;;;;;;;;;;5043641;28;42857;-81
2023/04/12 01:55:49;;;;;;;;;;;;;;;;;;5031510;28;43000;-81
2023/04/12 01:58:15;;;;;;;;;;;;;;;;;;5020525;28;43750;-79
2023/04/12 02:00:41;;;;;;;;;;;;;;;;;;5029284;28;43011;-80
2023/04/12 02:03:07;;;;;;;;;;;;;;;;;;5042230;28;44711;-78
2023/04/12 02:05:33;;;;;;;;;;;;;;;;;;5031702;28;42932;-79
2023/04/12 02:07:59;;;;;;;;;;;;;;;;;;5024329;28;43602;-79
2023/04/12 02:10:25;;;;;;;;;;;;;;;;;;5024226;28;42974;-79
2023/04/12 02:12:53;;;;;;;;;;;;;;;;;;5024304;28;42948;-79
2023/04/12 02:15:20;;;;;;;;;;;;;;;;;;5024232;28;42991;-79
2023/04/12 02:17:45;;;;;;;;;;;;;;;;;;5035898;28;42790;-79
2023/04/12 02:20:11;;;;;;;;;;;;;;;;;;5030785;28;44353;-79
2023/04/12 02:22:37;;;;;;;;;;;;;;;;;;5024125;28;42844;-79
2023/04/12 02:25:05;;;;;;;;;;;;;;;;;;5024562;28;42913;-80
2023/04/12 02:27:31;;;;;;;;;;;;;;;;;;5042035;28;44623;-79
2023/04/12 02:29:57;;;;;;;;;;;;;;;;;;5043743;28;42928;-79
2023/04/12 02:32:23;;;;;;;;;;;;;;;;;;5040854;28;42984;-77
2023/04/12 02:34:50;;;;;;;;;;;;;;;;;;5023292;28;43092;-78
2023/04/12 02:37:16;;;;;;;;;;;;;;;;;;5039189;28;43858;-79
2023/04/12 02:39:43;;;;;;;;;;;;;;;;;;5033534;28;42877;-79
2023/04/12 02:42:09;;;;;;;;;;;;;;;;;;5024123;28;44006;-81
2023/04/12 02:44:35;;;;;;;;;;;;;;;;;;5016029;28;43198;-80
2023/04/12 02:47:01;;;;;;;;;;;;;;;;;;5043026;28;43048;-80
2023/04/12 02:49:27;;;;;;;;;;;;;;;;;;5041594;28;42963;-79
2023/04/12 02:51:53;;;;;;;;;;;;;;;;;;5043011;28;43682;-80
2023/04/12 02:54:19;;;;;;;;;;;;;;;;;;5042341;28;42849;-83
2023/04/12 02:56:45;;;;;;;;;;;;;;;;;;5025487;28;43989;-79
2023/04/12 02:59:11;;;;;;;;;;;;;;;;;;5023183;28;43039;-79
2023/04/12 03:01:38;;;;;;;;;;;;;;;;;;5023403;28;45321;-79
2023/04/12 03:04:04;;;;;;;;;;;;;;;;;;5041291;28;42941;-80
2023/04/12 03:06:30;;;;;;;;;;;;;;;;;;5043345;28;44593;-79
2023/04/12 03:08:56;;;;;;;;;;;;;;;;;;5041056;28;43027;-79
2023/04/12 03:11:22;;;;;;;;;;;;;;;;;;5035838;28;42901;-79
2023/04/12 03:13:48;;;;;;;;;;;;;;;;;;5043118;28;43004;-79
2023/04/12 03:16:14;;;;;;;;;;;;;;;;;;5025770;28;42940;-79
2023/04/12 03:18:40;;;;;;;;;;;;;;;;;;5031693;28;43002;-80
2023/04/12 03:21:06;;;;;;;;;;;;;;;;;;5033144;28;43232;-79
2023/04/12 03:23:32;;;;;;;;;;;;;;;;;;5024269;28;43106;-79
2023/04/12 03:25:58;;;;;;;;;;;;;;;;;;5027069;28;42960;-79
2023/04/12 03:28:24;;;;;;;;;;;;;;;;;;5046244;28;42870;-80
2023/04/12 03:30:50;;;;;;;;;;;;;;;;;;5046327;28;42972;-80
2023/04/12 03:33:16;;;;;;;;;;;;;;;;;;5035916;28;43052;-79
2023/04/12 03:35:42;;;;;;;;;;;;;;;;;;5044412;28;42950;-79
2023/04/12 03:38:07;;;;;;;;;;;;;;;;;;5027598;28;42787;-79
2023/04/12 03:40:33;;;;;;;;;;;;;;;;;;5046828;28;44062;-79
2023/04/12 03:42:59;;;;;;;;;;;;;;;;;;5046496;28;42989;-79
2023/04/12 03:45:25;;;;;;;;;;;;;;;;;;5046636;28;42909;-79
2023/04/12 03:47:51;;;;;;;;;;;;;;;;;;5046817;28;43043;-80
2023/04/12 03:50:17;;;;;;;;;;;;;;;;;;5047037;28;43199;-79
2023/04/12 03:52:43;;;;;;;;;;;;;;;;;;5046346;28;42898;-80
2023/04/12 03:55:11;;;;;;;;;;;;;;;;;;5046650;28;43144;-80
2023/04/12 03:57:37;;;;;;;;;;;;;;;;;;5028114;28;42915;-79
2023/04/12 04:00:03;;;;;;;;;;;;;;;;;;5046672;28;43465;-79
2023/04/12 04:02:30;;;;;;;;;;;;;;;;;;5046198;28;42895;-79
2023/04/12 04:04:56;;;;;;;;;;;;;;;;;;5045394;28;44282;-79
2023/04/12 04:07:22;;;;;;;;;;;;;;;;;;5045663;28;42841;-79
2023/04/12 04:09:48;;;;;;;;;;;;;;;;;;5026872;28;43576;-78
2023/04/12 04:12:14;;;;;;;;;;;;;;;;;;5027054;28;43007;-79
2023/04/12 04:14:40;;;;;;;;;;;;;;;;;;5026400;28;43361;-79
2023/04/12 04:17:06;;;;;;;;;;;;;;;;;;5025922;28;43142;-79
2023/04/12 04:19:32;;;;;;;;;;;;;;;;;;5008542;28;43509;-79
2023/04/12 04:22:00;;;;;;;;;;;;;;;;;;5026498;28;42886;-79
2023/04/12 04:24:26;;;;;;;;;;;;;;;;;;5038694;28;43113;-80
2023/04/12 04:26:53;;;;;;;;;;;;;;;;;;5045784;28;43034;-79
2023/04/12 04:29:19;;;;;;;;;;;;;;;;;;5030706;28;42993;-79
2023/04/12 04:31:44;;;;;;;;;;;;;;;;;;5029397;28;43039;-79
2023/04/12 04:34:10;;;;;;;;;;;;;;;;;;5044929;28;43484;-79
2023/04/12 04:36:36;;;;;;;;;;;;;;;;;;5039230;28;43098;-79
2023/04/12 04:39:03;;;;;;;;;;;;;;;;;;5033136;28;43811;-79
2023/04/12 04:41:33;;;;;;;;;;;;;;;;;;5045935;28;43007;-80
2023/04/12 04:43:59;;;;;;;;;;;;;;;;;;5039349;28;44180;-82
2023/04/12 04:46:29;;;;;;;;;;;;;;;;;;5045485;28;42947;-80
2023/04/12 04:48:55;;;;;;;;;;;;;;;;;;5044012;28;43503;-80
2023/04/12 04:51:21;;;;;;;;;;;;;;;;;;5043511;28;42827;-81
2023/04/12 04:53:47;;;;;;;;;;;;;;;;;;5026133;28;43254;-80
2023/04/12 04:56:13;;;;;;;;;;;;;;;;;;5015777;28;44916;-81
2023/04/12 04:58:39;;;;;;;;;;;;;;;;;;5045181;28;43553;-80
2023/04/12 05:01:05;;;;;;;;;;;;;;;;;;5045605;28;43048;-80
2023/04/12 05:03:32;;;;;;;;;;;;;;;;;;5027485;28;44152;-81
2023/04/12 05:05:58;;;;;;;;;;;;;;;;;;5008046;28;43056;-81
2023/04/12 05:08:24;;;;;;;;;;;;;;;;;;5025120;28;44058;-81
2023/04/12 05:10:51;;;;;;;;;;;;;;;;;;5025371;28;43059;-80
2023/04/12 05:13:17;;;;;;;;;;;;;;;;;;5024812;28;44409;-80
2023/04/12 05:15:43;;;;;;;;;;;;;;;;;;5026668;28;42993;-81
2023/04/12 05:18:09;;;;;;;;;;;;;;;;;;5040461;28;42921;-81
2023/04/12 05:20:35;;;;;;;;;;;;;;;;;;5037627;28;43105;-80
2023/04/12 05:23:01;;;;;;;;;;;;;;;;;;5037449;28;42975;-80
2023/04/12 05:25:27;;;;;;;;;;;;;;;;;;5046206;28;42945;-80
2023/04/12 05:27:53;;;;;;;;;;;;;;;;;;5015356;28;43865;-80
2023/04/12 05:30:19;;;;;;;;;;;;;;;;;;5039515;28;42778;-81
2023/04/12 05:32:45;;;;;;;;;;;;;;;;;;5042411;28;43021;-80
2023/04/12 05:35:11;;;;;;;;;;;;;;;;;;5035311;28;43042;-81
2023/04/12 05:37:37;;;;;;;;;;;;;;;;;;5032043;28;43416;-85
2023/04/12 05:40:05;;;;;;;;;;;;;;;;;;5015820;28;42983;-80
2023/04/12 05:42:31;;;;;;;;;;;;;;;;;;5033348;28;42980;-81
2023/04/12 05:44:57;;;;;;;;;;;;;;;;;;5045013;28;42896;-81
2023/04/12 05:47:23;;;;;;;;;;;;;;;;;;5043280;28;42877;-81
2023/04/12 05:49:49;;;;;;;;;;;;;;;;;;5042444;28;43122;-80
2023/04/12 05:52:15;;;;;;;;;;;;;;;;;;5036333;28;43447;-81
2023/04/12 05:54:41;;;;;;;;;;;;;;;;;;5036525;28;42903;-81
2023/04/12 05:57:07;;;;;;;;;;;;;;;;;;5035205;28;42888;-80
2023/04/12 05:59:33;;;;;;;;;;;;;;;;;;5032288;28;42941;-79
2023/04/12 06:01:59;;;;;;;;;;;;;;;;;;5029657;28;43217;-81
2023/04/12 06:04:25;;;;;;;;;;;;;;;;;;5037657;28;43069;-80
2023/04/12 06:06:51;;;;;;;;;;;;;;;;;;5032776;28;44735;-81
2023/04/12 06:09:17;;;;;;;;;;;;;;;;;;5015759;28;43181;-82
2023/04/12 06:11:43;;;;;;;;;;;;;;;;;;5031949;28;43117;-80
2023/04/12 06:14:09;;;;;;;;;;;;;;;;;;5034820;28;43131;-81
2023/04/12 06:16:35;;;;;;;;;;;;;;;;;;5034693;28;43381;-82
2023/04/12 06:19:01;;;;;;;;;;;;;;;;;;5033666;28;42910;-80
2023/04/12 06:21:27;;;;;;;;;;;;;;;;;;5035066;28;43435;-82
2023/04/12 06:23:53;;;;;;;;;;;;;;;;;;5034270;28;42957;-81
2023/04/12 06:26:18;;;;;;;;;;;;;;;;;;5038678;28;43687;-82
2023/04/12 06:28:44;;;;;;;;;;;;;;;;;;5034746;28;43675;-81
2023/04/12 06:31:10;;;;;;;;;;;;;;;;;;5033186;28;43527;-79
2023/04/12 06:33:36;;;;;;;;;;;;;;;;;;5038412;28;43022;-80
2023/04/12 06:36:02;;;;;;;;;;;;;;;;;;5034968;28;43375;-81
2023/04/12 06:38:28;;;;;;;;;;;;;;;;;;5033225;28;43053;-81
2023/04/12 06:40:54;;;;;;;;;;;;;;;;;;5033923;28;42997;-81
2023/04/12 06:43:21;;;;;;;;;;;;;;;;;;5034494;28;43013;-80
2023/04/12 06:45:48;;;;;;;;;;;;;;;;;;5032542;28;43264;-80
2023/04/12 06:48:14;;;;;;;;;;;;;;;;;;5033995;28;43180;-80
2023/04/12 06:50:40;;;;;;;;;;;;;;;;;;5034742;28;43677;-80
2023/04/12 06:53:06;;;;;;;;;;;;;;;;;;5032807;28;43005;-80
2023/04/12 06:55:32;;;;;;;;;;;;;;;;;;5034221;28;42998;-81
2023/04/12 06:57:58;;;;;;;;;;;;;;;;;;5034801;28;43157;-82
2023/04/12 07:00:24;;;;;;;;;;;;;;;;;;5042522;28;42940;-83
2023/04/12 07:02:50;;;;;;;;;;;;;;;;;;5036994;28;42916;-84
2023/04/12 07:05:16;;;;;;;;;;;;;;;;;;5038510;28;42934;-82
2023/04/12 07:07:41;;;;;;;;;;;;;;;;;;5037450;28;43009;-83
2023/04/12 07:10:07;;;;;;;;;;;;;;;;;;5038594;28;44226;-82
2023/04/12 07:12:33;;;;;;;;;;;;;;;;;;5041793;28;42901;-82
2023/04/12 07:14:59;;;;;;;;;;;;;;;;;;5037539;28;43573;-83
2023/04/12 07:17:28;;;;;;;;;;;;;;;;;;5036728;28;42973;-83
2023/04/12 07:19:54;;;;;;;;;;;;;;;;;;5035673;28;43005;-82
2023/04/12 07:22:20;;;;;;;;;;;;;;;;;;5036567;28;43004;-83
2023/04/12 07:24:46;;;;;;;;;;;;;;;;;;5040722;28;43043;-83
2023/04/12 07:27:12;;;;;;;;;;;;;;;;;;5038285;28;42999;-83
2023/04/12 07:29:37;;;;;;;;;;;;;;;;;;5044302;28;42923;-85
2023/04/12 07:32:03;;;;;;;;;;;;;;;;;;5045093;28;42950;-84
2023/04/12 07:34:29;;;;;;;;;;;;;;;;;;5038255;28;43048;-84
2023/04/12 07:36:55;;;;;;;;;;;;;;;;;;5031821;28;43026;-84
2023/04/12 07:39:21;;;;;;;;;;;;;;;;;;5017591;28;44358;-83
2023/04/12 07:41:47;;;;;;;;;;;;;;;;;;5036484;28;42801;-84
2023/04/12 07:44:13;;;;;;;;;;;;;;;;;;5019385;28;44580;-84
2023/04/12 07:46:40;;;;;;;;;;;;;;;;;;5037236;28;42904;-83
2023/04/12 07:49:06;;;;;;;;;;;;;;;;;;5036441;28;42983;-82
2023/04/12 07:51:32;;;;;;;;;;;;;;;;;;5016953;28;43043;-86
2023/04/12 07:53:58;;;;;;;;;;;;;;;;;;5042853;28;43155;-84
2023/04/12 07:56:24;;;;;;;;;;;;;;;;;;5046796;28;42787;-84
2023/04/12 07:58:50;;;;;;;;;;;;;;;;;;5047197;28;43361;-86
2023/04/12 08:01:16;;;;;;;;;;;;;;;;;;5046657;28;43048;-84
2023/04/12 08:03:42;;;;;;;;;;;;;;;;;;5046949;28;43561;-85
2023/04/12 08:06:08;;;;;;;;;;;;;;;;;;5047125;28;43055;-81
2023/04/12 08:08:34;;;;;;;;;;;;;;;;;;5046970;28;43863;-82
2023/04/12 08:11:01;;;;;;;;;;;;;;;;;;5045728;28;42918;-82
2023/04/12 08:13:27;;;;;;;;;;;;;;;;;;5046892;28;44998;-82
2023/04/12 08:15:53;;;;;;;;;;;;;;;;;;5047500;28;42947;-83
2023/04/12 08:18:19;;;;;;;;;;;;;;;;;;5028387;28;44639;-83
2023/04/12 08:20:47;;;;;;;;;;;;;;;;;;5046944;28;42939;-82
2023/04/12 08:23:14;;;;;;;;;;;;;;;;;;5047407;28;43022;-85
2023/04/12 08:25:40;;;;;;;;;;;;;;;;;;5046952;28;42933;-82
2023/04/12 08:28:07;;;;;;;;;;;;;;;;;;5046970;28;42853;-82
2023/04/12 08:30:33;;;;;;;;;;;;;;;;;;5047052;28;43292;-82
2023/04/12 08:32:59;;;;;;;;;;;;;;;;;;5047071;28;42866;-85
2023/04/12 08:35:25;;;;;;;;;;;;;;;;;;5047139;28;42991;-85
2023/04/12 08:37:51;;;;;;;;;;;;;;;;;;5046883;28;43083;-82
2023/04/12 08:40:17;;;;;;;;;;;;;;;;;;5028231;28;42869;-86
2023/04/12 08:42:43;;;;;;;;;;;;;;;;;;5046411;28;43263;-86
2023/04/12 08:45:09;;;;;;;;;;;;;;;;;;5046574;28;42796;-86
2023/04/12 08:47:35;;;;;;;;;;;;;;;;;;5046451;28;42829;-87
2023/04/12 08:50:01;;;;;;;;;;;;;;;;;;5046189;28;42897;-86
2023/04/12 08:52:27;;;;;;;;;;;;;;;;;;5045665;28;43003;-82
2023/04/12 08:54:53;;;;;;;;;;;;;;;;;;5046670;28;42874;-82
2023/04/12 08:57:19;;;;;;;;;;;;;;;;;;5046915;28;43797;-82
2023/04/12 08:59:45;;;;;;;;;;;;;;;;;;5046518;28;42999;-82
2023/04/12 09:02:11;;;;;;;;;;;;;;;;;;5046665;28;43395;-81
2023/04/12 09:04:36;;;;;;;;;;;;;;;;;;5046442;28;42861;-82
2023/04/12 09:07:04;;;;;;;;;;;;;;;;;;5046231;28;43646;-83
2023/04/12 09:09:30;;;;;;;;;;;;;;;;;;5046249;28;42893;-82
2023/04/12 09:11:56;;;;;;;;;;;;;;;;;;5046098;28;43405;-82
2023/04/12 09:14:22;;;;;;;;;;;;;;;;;;5045779;28;42869;-82
2023/04/12 09:16:48;;;;;;;;;;;;;;;;;;5045812;28;43521;-83
2023/04/12 09:19:14;;;;;;;;;;;;;;;;;;5046018;28;43055;-82
2023/04/12 09:21:40;;;;;;;;;;;;;;;;;;5045913;28;43366;-81
2023/04/12 09:24:08;;;;;;;;;;;;;;;;;;5046061;28;42858;-81
2023/04/12 09:26:34;;;;;;;;;;;;;;;;;;5045617;28;43976;-83
2023/04/12 09:29:00;;;;;;;;;;;;;;;;;;5045584;28;42734;-81
2023/04/12 09:31:26;;;;;;;;;;;;;;;;;;5044885;28;44440;-82
2023/04/12 09:33:52;;;;;;;;;;;;;;;;;;5027348;28;43008;-82
2023/04/12 09:36:18;;;;;;;;;;;;;;;;;;5045057;28;43103;-82
2023/04/12 09:38:44;;;;;;;;;;;;;;;;;;5045719;28;43070;-82
2023/04/12 09:41:10;;;;;;;;;;;;;;;;;;5045738;28;43643;-81
2023/04/12 09:43:36;;;;;;;;;;;;;;;;;;5046066;28;42868;-82
2023/04/12 09:46:02;;;;;;;;;;;;;;;;;;5045382;28;43669;-82
2023/04/12 09:48:27;;;;;;;;;;;;;;;;;;5045526;28;42852;-82
2023/04/12 09:50:53;;;;;;;;;;;;;;;;;;5045844;28;42902;-81
2023/04/12 09:53:20;;;;;;;;;;;;;;;;;;5045575;28;42937;-82
2023/04/12 09:55:46;;;;;;;;;;;;;;;;;;5045159;28;42980;-82
2023/04/12 09:58:12;;;;;;;;;;;;;;;;;;5045178;28;42941;-82
2023/04/12 10:00:38;;;;;;;;;;;;;;;;;;5044938;28;42870;-81
2023/04/12 10:03:05;;;;;;;;;;;;;;;;;;5027135;28;43063;-82
2023/04/12 10:05:31;;;;;;;;;;;;;;;;;;5044274;28;43664;-82
2023/04/12 10:07:57;;;;;;;;;;;;;;;;;;5044591;28;42783;-82
2023/04/12 10:10:23;;;;;;;;;;;;;;;;;;5045631;28;43586;-82
2023/04/12 10:12:49;;;;;;;;;;;;;;;;;;5045517;28;42941;-82
2023/04/12 10:15:20;;;;;;;;;;;;;;;;;;5044686;28;43884;-82
2023/04/12 10:17:46;;;;;;;;;;;;;;;;;;5044695;28;42983;-82
2023/04/12 10:20:12;;;;;;;;;;;;;;;;;;5042915;28;43815;-83
2023/04/12 10:22:38;;;;;;;;;;;;;;;;;;5035391;28;42734;-81
2023/04/12 10:25:04;;;;;;;;;;;;;;;;;;5033764;28;43401;-81
2023/04/12 10:27:30;;;;;;;;;;;;;;;;;;5025125;28;42756;-81
2023/04/12 10:29:55;;;;;;;;;;;;;;;;;;5025136;28;42756;-82
2023/04/12 10:32:21;;;;;;;;;;;;;;;;;;5025280;28;42921;-81
2023/04/12 10:34:47;;;;;;;;;;;;;;;;;;5023919;28;43281;-82
2023/04/12 10:37:16;;;;;;;;;;;;;;;;;;5006228;28;43028;-85
2023/04/12 10:39:42;;;;;;;;;;;;;;;;;;5024647;28;43306;-84
2023/04/12 10:42:08;;;;;;;;;;;;;;;;;;5024134;28;43010;-84
2023/04/12 10:44:34;;;;;;;;;;;;;;;;;;5033112;28;43023;-82
2023/04/12 10:47:00;;;;;;;;;;;;;;;;;;5034261;28;42997;-84
2023/04/12 10:49:26;;;;;;;;;;;;;;;;;;5037787;28;43458;-84
2023/04/12 10:51:52;;;;;;;;;;;;;;;;;;5040512;28;42924;-83
2023/04/12 10:54:18;;;;;;;;;;;;;;;;;;5036169;28;44766;-84
2023/04/12 10:56:44;;;;;;;;;;;;;;;;;;5016927;28;43015;-85
2023/04/12 10:59:10;;;;;;;;;;;;;;;;;;5033067;28;42984;-84
2023/04/12 11:01:36;;;;;;;;;;;;;;;;;;5035733;28;43027;-84
2023/04/12 11:04:02;;;;;;;;;;;;;;;;;;5038011;28;42941;-85
2023/04/12 11:06:27;;;;;;;;;;;;;;;;;;5038812;28;42965;-85
2023/04/12 11:08:53;;;;;;;;;;;;;;;;;;5037813;28;43023;-85
2023/04/12 11:11:21;;;;;;;;;;;;;;;;;;5035342;28;42942;-85
2023/04/12 11:13:47;;;;;;;;;;;;;;;;;;5034042;28;43125;-87
2023/04/12 11:16:13;;;;;;;;;;;;;;;;;;5022819;28;43132;-84
2023/04/12 11:18:38;;;;;;;;;;;;;;;;;;5032639;28;42993;-84
2023/04/12 11:21:04;;;;;;;;;;;;;;;;;;5033401;28;42983;-84
2023/04/12 11:23:30;;;;;;;;;;;;;;;;;;5033433;28;43530;-83
2023/04/12 11:25:57;;;;;;;;;;;;;;;;;;5034832;28;42874;-83
2023/04/12 11:28:24;;;;;;;;;;;;;;;;;;5015707;28;43721;-83
2023/04/12 11:30:50;;;;;;;;;;;;;;;;;;5031840;28;42996;-83
2023/04/12 11:33:16;;;;;;;;;;;;;;;;;;5033378;28;43498;-83
2023/04/12 11:35:42;;;;;;;;;;;;;;;;;;5015460;28;42964;-83
2023/04/12 11:38:08;;;;;;;;;;;;;;;;;;5034117;28;42978;-82
2023/04/12 11:40:34;;;;;;;;;;;;;;;;;;5033726;28;42933;-79
2023/04/12 11:43:00;;;;;;;;;;;;;;;;;;5014761;28;44487;-78
2023/04/12 11:45:28;;;;;;;;;;;;;;;;;;5022751;28;43109;-81
2023/04/12 11:47:56;;;;;;;;;;;;;;;;;;5044538;28;43279;-80
2023/04/12 11:50:22;;;;;;;;;;;;;;;;;;5028465;28;43112;-81
2023/04/12 11:52:48;;;;;;;;;;;;;;;;;;5046453;28;42999;-80
2023/04/12 11:55:14;;;;;;;;;;;;;;;;;;5047317;28;42854;-81
2023/04/12 11:57:40;;;;;;;;;;;;;;;;;;5044955;28;43467;-81
2023/04/12 12:00:06;;;;;;;;;;;;;;;;;;5045021;28;42850;-81
2023/04/12 12:02:32;;;;;;;;;;;;;;;;;;5040699;28;43997;-81
2023/04/12 12:04:58;;;;;;;;;;;;;;;;;;5036051;28;43033;-85
2023/04/12 12:07:24;;;;;;;;;;;;;;;;;;5037759;28;42944;-83
2023/04/12 12:09:52;;;;;;;;;;;;;;;;;;5041166;28;59780;-83
2023/04/12 12:12:18;;;;;;;;;;;;;;;;;;5037178;28;43025;-81
2023/04/12 12:14:46;;;;;;;;;;;;;;;;;;5036279;28;43022;-82
2023/04/12 12:17:12;;;;;;;;;;;;;;;;;;5034509;28;43415;-81
2023/04/12 12:19:38;;;;;;;;;;;;;;;;;;5037164;28;42834;-82
2023/04/12 12:22:03;;;;;;;;;;;;;;;;;;5035954;28;43683;-80
2023/04/12 12:24:29;;;;;;;;;;;;;;;;;;5035658;28;43064;-81
2023/04/12 12:26:57;;;;;;;;;;;;;;;;;;5036873;28;43860;-83
2023/04/12 12:29:25;;;;;;;;;;;;;;;;;;5034720;28;42979;-81
2023/04/12 12:31:52;;;;;;;;;;;;;;;;;;5036336;28;42993;-81
2023/04/12 12:34:18;;;;;;;;;;;;;;;;;;5034041;28;42980;-81
2023/04/12 12:36:44;;;;;;;;;;;;;;;;;;5036096;28;42998;-82
2023/04/12 12:39:10;;;;;;;;;;;;;;;;;;5034915;28;43061;-80
2023/04/12 12:41:36;;;;;;;;;;;;;;;;;;5036384;28;43539;-81
2023/04/12 12:44:02;;;;;;;;;;;;;;;;;;5035247;28;42971;-82
2023/04/12 12:46:28;;;;;;;;;;;;;;;;;;5035434;28;43007;-81
2023/04/12 12:48:54;;;;;;;;;;;;;;;;;;5036904;28;42927;-81
2023/04/12 12:51:20;;;;;;;;;;;;;;;;;;5040525;28;43011;-81
2023/04/12 12:53:46;;;;;;;;;;;;;;;;;;5037562;28;43045;-85
2023/04/12 12:56:12;;;;;;;;;;;;;;;;;;5016040;28;44419;-81
2023/04/12 12:58:38;;;;;;;;;;;;;;;;;;5035709;28;42905;-86
2023/04/12 13:01:04;;;;;;;;;;;;;;;;;;5035924;28;43361;-87
2023/04/12 13:03:30;;;;;;;;;;;;;;;;;;5034231;28;43096;-86
2023/04/12 13:05:56;;;;;;;;;;;;;;;;;;5039998;28;42972;-86
2023/04/12 13:08:22;;;;;;;;;;;;;;;;;;5036844;28;43048;-86
2023/04/12 13:10:47;;;;;;;;;;;;;;;;;;5016299;28;44378;-84
2023/04/12 13:13:14;;;;;;;;;;;;;;;;;;5036181;28;42952;-84
2023/04/12 13:15:40;;;;;;;;;;;;;;;;;;5035629;28;42866;-84
2023/04/12 13:18:06;;;;;;;;;;;;;;;;;;5034348;28;43092;-83
2023/04/12 13:20:32;;;;;;;;;;;;;;;;;;5030333;28;43003;-82
2023/04/12 13:22:58;;;;;;;;;;;;;;;;;;5016284;28;43020;-80
2023/04/12 13:25:24;;;;;;;;;;;;;;;;;;5033718;28;42912;-86
2023/04/12 13:27:50;;;;;;;;;;;;;;;;;;5034351;28;42943;-89
2023/04/12 13:30:16;;;;;;;;;;;;;;;;;;5033175;28;43535;-86
2023/04/12 13:32:43;;;;;;;;;;;;;;;;;;5034467;28;42877;-88
2023/04/12 13:35:09;;;;;;;;;;;;;;;;;;5034177;28;44003;-84
2023/04/12 13:37:35;;;;;;;;;;;;;;;;;;5037354;28;42944;-83
2023/04/12 13:40:01;;;;;;;;;;;;;;;;;;5039379;28;43809;-83
2023/04/12 13:42:27;;;;;;;;;;;;;;;;;;5017270;28;43052;-81
2023/04/12 13:44:53;;;;;;;;;;;;;;;;;;5035445;28;43830;-81
2023/04/12 13:47:19;;;;;;;;;;;;;;;;;;5031988;28;43056;-81
2023/04/12 13:49:45;;;;;;;;;;;;;;;;;;5032415;28;42919;-82
2023/04/12 13:52:11;;;;;;;;;;;;;;;;;;5033869;28;43026;-83
2023/04/12 13:54:36;;;;;;;;;;;;;;;;;;5028283;28;42901;-82
2023/04/12 13:57:03;;;;;;;;;;;;;;;;;;5034701;28;42988;-81
2023/04/12 13:59:29;;;;;;;;;;;;;;;;;;5034388;28;43262;-81
2023/04/12 14:01:55;;;;;;;;;;;;;;;;;;5033991;28;43057;-83
2023/04/12 14:04:21;;;;;;;;;;;;;;;;;;5018025;28;44609;-83
2023/04/12 14:06:48;;;;;;;;;;;;;;;;;;5038481;28;42966;-77
2023/04/12 14:09:14;;;;;;;;;;;;;;;;;;5034830;28;43681;-76
2023/04/12 14:11:40;;;;;;;;;;;;;;;;;;5035565;28;42908;-77
2023/04/12 14:14:06;;;;;;;;;;;;;;;;;;5033632;28;43511;-76
2023/04/12 14:16:32;;;;;;;;;;;;;;;;;;5034965;28;43189;-76
2023/04/12 14:18:58;;;;;;;;;;;;;;;;;;5034558;28;42996;-77
2023/04/12 14:21:27;;;;;;;;;;;;;;;;;;5032963;28;43181;-77
2023/04/12 14:23:53;;;;;;;;;;;;;;;;;;5034556;28;43209;-79
2023/04/12 14:26:19;;;;;;;;;;;;;;;;;;5036583;28;42878;-76
2023/04/12 14:28:48;;;;;;;;;;;;;;;;;;5035848;28;42821;-78
2023/04/12 14:31:14;;;;;;;;;;;;;;;;;;5034582;28;43045;-76
2023/04/12 14:33:40;;;;;;;;;;;;;;;;;;5034059;28;44718;-78
2023/04/12 14:36:07;;;;;;;;;;;;;;;;;;5044344;28;43165;-80
2023/04/12 14:38:33;;;;;;;;;;;;;;;;;;5044327;28;43968;-76
2023/04/12 14:40:59;;;;;;;;;;;;;;;;;;5042146;28;44113;-76
2023/04/12 14:43:25;;;;;;;;;;;;;;;;;;5043444;28;43617;-79
2023/04/12 14:45:51;;;;;;;;;;;;;;;;;;5044428;28;42958;-78
2023/04/12 14:48:17;;;;;;;;;;;;;;;;;;5041362;28;43555;-78
2023/04/12 14:50:43;;;;;;;;;;;;;;;;;;5036490;28;42931;-78
2023/04/12 14:53:09;;;;;;;;;;;;;;;;;;5034928;28;43062;-78
2023/04/12 14:55:35;;;;;;;;;;;;;;;;;;5033077;28;42966;-78
2023/04/12 14:58:01;;;;;;;;;;;;;;;;;;5037659;28;43433;-79
2023/04/12 15:00:28;;;;;;;;;;;;;;;;;;5044513;28;43001;-78
2023/04/12 15:02:54;;;;;;;;;;;;;;;;;;5038926;28;42893;-79
2023/04/12 15:05:20;;;;;;;;;;;;;;;;;;5035129;28;42941;-79
2023/04/12 15:07:45;;;;;;;;;;;;;;;;;;5032269;28;44145;-78
2023/04/12 15:10:15;;;;;;;;;;;;;;;;;;5035120;28;42869;-79
2023/04/12 15:12:41;;;;;;;;;;;;;;;;;;5033184;28;42803;-79
2023/04/12 15:15:07;;;;;;;;;;;;;;;;;;5015473;28;42968;-79
2023/04/12 15:17:33;;;;;;;;;;;;;;;;;;5033539;28;43665;-79
2023/04/12 15:19:59;;;;;;;;;;;;;;;;;;5036183;28;43136;-78
2023/04/12 15:22:25;;;;;;;;;;;;;;;;;;5036055;28;43391;-78
2023/04/12 15:24:51;;;;;;;;;;;;;;;;;;5040602;28;43119;-78
2023/04/12 15:27:17;;;;;;;;;;;;;;;;;;5033515;28;43263;-79
2023/04/12 15:29:43;;;;;;;;;;;;;;;;;;5038142;28;42929;-79
2023/04/12 15:32:09;;;;;;;;;;;;;;;;;;5035211;28;42945;-78
2023/04/12 15:34:35;;;;;;;;;;;;;;;;;;5038478;28;43607;-79
2023/04/12 15:37:01;;;;;;;;;;;;;;;;;;5047549;28;43706;-79
2023/04/12 15:39:27;;;;;;;;;;;;;;;;;;5047848;28;42946;-79
2023/04/12 15:41:53;;;;;;;;;;;;;;;;;;5043880;28;42923;-79
2023/04/12 15:44:19;;;;;;;;;;;;;;;;;;5029308;28;43129;-78
2023/04/12 15:46:45;;;;;;;;;;;;;;;;;;5047466;28;43554;-78
2023/04/12 15:49:11;;;;;;;;;;;;;;;;;;5044215;28;43002;-78
2023/04/12 15:51:37;;;;;;;;;;;;;;;;;;5038275;28;43159;-79
2023/04/12 15:54:03;;;;;;;;;;;;;;;;;;5037299;28;43099;-78
2023/04/12 15:56:30;;;;;;;;;;;;;;;;;;5017715;28;43949;-79
2023/04/12 15:58:56;;;;;;;;;;;;;;;;;;5035967;28;42921;-78
2023/04/12 16:01:22;;;;;;;;;;;;;;;;;;5037962;28;43093;-78
2023/04/12 16:03:48;;;;;;;;;;;;;;;;;;5043780;28;43017;-79
2023/04/12 16:06:20;;;;;;;;;;;;;;;;;;5041275;28;42993;-78
2023/04/12 16:08:46;;;;;;;;;;;;;;;;;;5032294;28;42938;-77
2023/04/12 16:11:12;;;;;;;;;;;;;;;;;;5041187;28;43321;-78
2023/04/12 16:13:40;;;;;;;;;;;;;;;;;;5035556;28;43036;-79
2023/04/12 16:16:06;;;;;;;;;;;;;;;;;;5027711;28;42854;-78
2023/04/12 16:18:32;;;;;;;;;;;;;;;;;;5047245;28;42743;-79
2023/04/12 16:20:58;;;;;;;;;;;;;;;;;;5045517;28;43637;-79
2023/04/12 16:23:26;;;;;;;;;;;;;;;;;;5045994;28;42985;-79
2023/04/12 16:25:53;;;;;;;;;;;;;;;;;;5047188;28;42909;-78
2023/04/12 16:28:21;;;;;;;;;;;;;;;;;;5044543;28;42734;-80
2023/04/12 16:30:48;;;;;;;;;;;;;;;;;;5024105;28;44705;-78
2023/04/12 16:33:14;;;;;;;;;;;;;;;;;;5042655;28;43056;-78
2023/04/12 16:35:42;;;;;;;;;;;;;;;;;;5046418;28;42794;-79
2023/04/12 16:38:07;;;;;;;;;;;;;;;;;;5043644;28;42933;-78